createdAt,value
2018-04-27T00:02:04.545Z,44.40
2018-04-27T00:04:32.035Z,44.30
2018-04-27T00:06:59.601Z,44.30
2018-04-27T00:09:27.104Z,44.30
2018-04-27T00:11:54.588Z,44.30
2018-04-27T00:14:22.830Z,44.40
2018-04-27T00:16:51.008Z,44.40
2018-04-27T00:19:18.503Z,44.30
2018-04-27T00:21:46.764Z,44.40
2018-04-27T00:24:14.251Z,44.40
2018-04-27T00:26:41.723Z,44.40
2018-04-27T00:29:09.211Z,44.40
2018-04-27T00:31:36.679Z,44.40
2018-04-27T00:34:04.176Z,44.40
2018-04-27T00:36:32.413Z,44.40
2018-04-27T00:38:59.901Z,44.40
2018-04-27T00:41:28.145Z,44.40
2018-04-27T00:43:55.635Z,44.40
2018-04-27T00:46:23.903Z,44.50
2018-04-27T00:48:52.144Z,44.40
2018-04-27T00:51:19.659Z,44.50
2018-04-27T00:53:47.834Z,44.40
2018-04-27T00:56:15.344Z,44.40
2018-04-27T00:58:42.821Z,44.40
2018-04-27T01:01:12.002Z,44.40
2018-04-27T01:03:39.578Z,44.40
2018-04-27T01:06:07.494Z,44.40
2018-04-27T01:08:34.984Z,44.40
2018-04-27T01:11:02.462Z,44.40
2018-04-27T01:13:30.707Z,44.40
2018-04-27T01:15:58.181Z,44.40
2018-04-27T01:18:25.711Z,44.40
2018-04-27T01:20:53.184Z,45.10
2018-04-27T01:23:21.425Z,44.50
2018-04-27T01:25:49.381Z,44.50
2018-04-27T01:28:16.870Z,44.50
2018-04-27T01:30:44.369Z,44.50
2018-04-27T01:33:11.868Z,44.50
2018-04-27T01:35:39.351Z,44.40
2018-04-27T01:38:06.893Z,44.40
2018-04-27T01:40:35.138Z,44.40
2018-04-27T01:43:03.383Z,44.40
2018-04-27T01:45:30.870Z,44.50
2018-04-27T01:48:00.049Z,44.50
2018-04-27T01:50:28.282Z,44.50
2018-04-27T01:52:55.808Z,44.50
2018-04-27T01:55:23.288Z,44.50
2018-04-27T01:57:50.786Z,44.50
2018-04-27T02:00:18.284Z,44.50
2018-04-27T02:02:45.770Z,44.50
2018-04-27T02:05:14.226Z,44.50
2018-04-27T02:07:41.724Z,44.50
2018-04-27T02:10:09.204Z,44.50
2018-04-27T02:12:36.693Z,44.50
2018-04-27T02:15:04.170Z,44.50
2018-04-27T02:17:31.656Z,44.50
2018-04-27T02:19:59.141Z,44.50
2018-04-27T02:22:27.397Z,44.70
2018-04-27T02:24:54.942Z,44.60
2018-04-27T02:27:22.444Z,44.50
2018-04-27T02:29:50.685Z,44.60
2018-04-27T02:32:18.167Z,44.50
2018-04-27T02:34:46.404Z,44.50
2018-04-27T02:37:14.341Z,44.50
2018-04-27T02:39:41.827Z,44.50
2018-04-27T02:42:09.314Z,44.50
2018-04-27T02:44:36.794Z,44.60
2018-04-27T02:47:05.164Z,44.60
2018-04-27T02:49:34.840Z,44.60
2018-04-27T02:52:02.318Z,44.60
2018-04-27T02:54:29.842Z,44.60
2018-04-27T02:56:57.327Z,44.60
2018-04-27T02:59:24.810Z,44.60
2018-04-27T03:01:53.067Z,44.60
2018-04-27T03:04:20.554Z,44.50
2018-04-27T03:06:48.046Z,45.20
2018-04-27T03:09:15.540Z,44.60
2018-04-27T03:11:43.841Z,44.50
2018-04-27T03:14:11.322Z,44.70
2018-04-27T03:16:38.808Z,45.30
2018-04-27T03:19:06.283Z,44.60
2018-04-27T03:21:33.772Z,44.60
2018-04-27T03:24:01.289Z,44.70
2018-04-27T03:26:28.756Z,44.50
2018-04-27T03:28:56.682Z,44.80
2018-04-27T03:31:24.153Z,46.60
2018-04-27T03:33:51.648Z,46.90
2018-04-27T03:36:19.125Z,47.10
2018-04-27T03:38:46.614Z,47.30
2018-04-27T03:41:14.086Z,47.50
2018-04-27T03:43:41.576Z,47.00
2018-04-27T03:46:09.052Z,46.40
2018-04-27T03:48:37.917Z,46.00
2018-04-27T03:51:05.408Z,46.00
2018-04-27T03:53:32.877Z,45.90
2018-04-27T03:56:00.363Z,45.80
2018-04-27T03:58:27.883Z,45.90
2018-04-27T04:01:07.303Z,45.90
2018-04-27T04:03:46.617Z,45.90
2018-04-27T04:06:14.114Z,45.80
2018-04-27T04:08:41.590Z,45.80
2018-04-27T04:11:09.077Z,45.90
2018-04-27T04:13:38.062Z,46.20
2018-04-27T04:16:05.521Z,45.90
2018-04-27T04:18:33.007Z,45.80
2018-04-27T04:21:00.475Z,45.80
2018-04-27T04:23:28.733Z,45.90
2018-04-27T04:25:56.309Z,45.90
2018-04-27T04:28:24.548Z,45.90
2018-04-27T04:30:52.061Z,45.90
2018-04-27T04:33:19.538Z,45.90
2018-04-27T04:35:47.075Z,45.80
2018-04-27T04:38:14.521Z,45.80
2018-04-27T04:40:42.761Z,45.80
2018-04-27T04:43:10.339Z,45.80
2018-04-27T04:45:38.587Z,45.70
2018-04-27T04:48:06.092Z,45.70
2018-04-27T04:50:34.344Z,45.60
2018-04-27T04:53:01.832Z,45.60
2018-04-27T04:55:29.300Z,45.70
2018-04-27T04:57:57.299Z,46.30
2018-04-27T05:00:24.780Z,45.60
2018-04-27T05:02:52.350Z,45.60
2018-04-27T05:05:21.273Z,45.50
2018-04-27T05:07:48.743Z,45.40
2018-04-27T05:10:16.223Z,45.40
2018-04-27T05:12:43.723Z,45.30
2018-04-27T05:15:12.021Z,45.30
2018-04-27T05:17:39.533Z,45.30
2018-04-27T05:20:06.528Z,45.20
2018-04-27T05:22:34.037Z,45.10
2018-04-27T05:25:01.552Z,45.10
2018-04-27T05:27:29.035Z,45.00
2018-04-27T05:29:56.508Z,45.00
2018-04-27T05:32:24.555Z,45.00
2018-04-27T05:34:52.050Z,44.80
2018-04-27T05:37:20.327Z,44.80
2018-04-27T05:39:48.602Z,44.90
2018-04-27T05:42:16.217Z,44.80
2018-04-27T05:44:43.799Z,45.30
2018-04-27T05:47:11.352Z,44.60
2018-04-27T05:49:38.883Z,44.60
2018-04-27T05:52:06.384Z,44.70
2018-04-27T05:54:34.489Z,44.70
2018-04-27T05:57:02.898Z,46.70
2018-04-27T05:59:30.382Z,46.70
2018-04-27T06:01:57.862Z,47.40
2018-04-27T06:04:25.373Z,48.20
2018-04-27T06:06:52.859Z,48.80
2018-04-27T06:09:20.373Z,49.30
2018-04-27T06:11:47.898Z,50.10
2018-04-27T06:14:15.391Z,50.90
2018-04-27T06:16:42.890Z,51.40
2018-04-27T06:19:10.380Z,51.80
2018-04-27T06:21:38.655Z,52.80
2018-04-27T06:24:06.910Z,53.10
2018-04-27T06:26:34.418Z,53.10
2018-04-27T06:29:02.795Z,53.40
2018-04-27T06:31:30.394Z,53.60
2018-04-27T06:33:57.881Z,53.90
2018-04-27T06:36:26.866Z,54.20
2018-04-27T06:38:55.230Z,48.10
2018-04-27T06:41:22.712Z,48.00
2018-04-27T06:43:50.991Z,43.40
2018-04-27T06:46:18.583Z,43.30
2018-04-27T06:48:46.081Z,43.50
2018-04-27T06:51:13.584Z,43.40
2018-04-27T06:53:41.147Z,43.40
2018-04-27T06:56:08.608Z,43.20
2018-04-27T06:58:36.086Z,42.60
2018-04-27T07:01:03.581Z,42.80
2018-04-27T07:03:31.071Z,43.20
2018-04-27T07:05:58.598Z,43.30
2018-04-27T07:08:26.137Z,43.10
2018-04-27T07:10:53.691Z,42.90
2018-04-27T07:13:21.172Z,42.70
2018-04-27T07:15:48.668Z,42.60
2018-04-27T07:18:16.791Z,42.40
2018-04-27T07:20:44.734Z,42.60
2018-04-27T07:23:12.218Z,42.50
2018-04-27T07:25:39.713Z,42.30
2018-04-27T07:28:07.697Z,42.40
2018-04-27T07:30:36.219Z,41.80
2018-04-27T07:33:04.307Z,41.40
2018-04-27T07:35:31.818Z,40.70
2018-04-27T07:37:59.308Z,40.20
2018-04-27T07:40:26.925Z,39.80
2018-04-27T07:42:55.247Z,39.60
2018-04-27T07:45:22.775Z,39.50
2018-04-27T07:47:51.902Z,39.10
2018-04-27T07:50:19.410Z,39.10
2018-04-27T07:54:22.688Z,42.80
2018-04-27T08:05:51.099Z,37.60
2018-04-27T08:08:20.340Z,34.90
2018-04-27T08:10:47.948Z,37.70
2018-04-27T08:13:16.130Z,41.50
2018-04-27T08:15:47.649Z,40.30
2018-04-27T08:18:15.354Z,40.00
2018-04-27T08:21:04.073Z,40.30
